»·PEaware :: N261MG KEUG-KGEG

N261MG :: KEUG-KGEG

FLIGHT INFORMATION

Flight Status: Arrived
Operator: Privately registered:
United States
More flights under this callsign
Pilot: Marty O. (15602)
Aircraft: ECLIPSE 500
(EA50)
More flights by this aircraft type
Origin: KEUG Mahlon Sweet
United States
Destination: KGEG Spokane Intl
United States
More flights between these airports :: More routes between these airports
Route: +GEG
File this flight plan on PilotEdge
Remarks:
Altitude:
(Current/Filed)
33,000ft
Speed:
(Current/Filed)
360kts
Departed: 23-Oct-20 08:10 PM
Arrived: 23-Oct-20 09:34 PM
Distance/Time
Traveled:
317nm/1:24
Distance/Time
To Go:
Arrived

Flight Plot

Page will automatically refresh every two minutes.

Flight plan parsing failed; only flown route is shown


Map Options




Map Legend


Flown Route
Filed Route
Departure Airport
Arrival Airport
Navaid (VOR, NDB)
Fix

Horizontal Profiles

Position Reports

Time Latitude Longitude Heading Altitude Ground
Speed
23-Oct-20 19:46 44.117920 -123.215198 42 377ft 0kts
23-Oct-20 19:47 44.117920 -123.215198 42 377ft 0kts
23-Oct-20 19:48 44.117920 -123.215198 42 377ft 0kts
23-Oct-20 19:49 44.117920 -123.215198 42 377ft 0kts
23-Oct-20 19:50 44.117920 -123.215198 42 377ft 0kts
23-Oct-20 19:51 44.117920 -123.215198 42 377ft 0kts
23-Oct-20 19:51 44.117920 -123.215198 42 377ft 0kts
23-Oct-20 19:53 44.117920 -123.215198 42 377ft 0kts
23-Oct-20 19:53 44.117920 -123.215198 42 377ft 0kts
23-Oct-20 19:55 44.117920 -123.215198 42 377ft 0kts
23-Oct-20 19:55 44.117920 -123.215198 42 377ft 0kts
23-Oct-20 19:57 44.117920 -123.215198 42 377ft 0kts
23-Oct-20 19:57 44.117920 -123.215198 42 377ft 0kts
23-Oct-20 19:58 44.118193 -123.215262 331 377ft 5kts
23-Oct-20 19:59 44.118973 -123.215678 349 377ft 4kts
23-Oct-20 20:00 44.120382 -123.215601 17 377ft 8kts
23-Oct-20 20:02 44.121755 -123.217020 0 377ft 7kts
23-Oct-20 20:02 44.123680 -123.217065 359 377ft 8kts
23-Oct-20 20:03 44.126480 -123.217096 1 377ft 10kts
23-Oct-20 20:04 44.129750 -123.217157 358 377ft 12kts
23-Oct-20 20:05 44.133505 -123.217201 359 377ft 11kts
23-Oct-20 20:06 44.135253 -123.217485 299 377ft 6kts
23-Oct-20 20:07 44.135295 -123.217691 278 377ft 0kts
23-Oct-20 20:08 44.135319 -123.218571 266 377ft 5kts
23-Oct-20 20:09 44.122472 -123.219804 183 610ft 124kts
23-Oct-20 20:10 44.079296 -123.218734 179 3218ft 160kts
23-Oct-20 20:11 44.033576 -123.214173 179 6085ft 169kts
23-Oct-20 20:12 43.984943 -123.205265 179 8597ft 184kts
23-Oct-20 20:13 43.919176 -123.193251 178 9001ft 270kts
23-Oct-20 20:14 43.842765 -123.181153 178 8999ft 280kts
23-Oct-20 20:15 43.766828 -123.162161 147 8997ft 292kts
23-Oct-20 20:16 43.784239 -123.084674 357 13254ft 214kts
23-Oct-20 20:17 43.840493 -123.039985 19 14993ft 237kts
23-Oct-20 20:18 43.893470 -123.004533 12 17823ft 194kts
23-Oct-20 20:19 43.943066 -122.974861 11 19734ft 194kts
23-Oct-20 20:20 43.993188 -122.945802 11 21416ft 198kts
23-Oct-20 20:21 44.043839 -122.916680 11 23110ft 196kts
23-Oct-20 20:22 44.093975 -122.887933 11 24759ft 193kts
23-Oct-20 20:23 44.144014 -122.859266 11 26221ft 196kts
23-Oct-20 20:24 44.194874 -122.830065 11 27571ft 199kts
23-Oct-20 20:25 44.246344 -122.800431 11 28885ft 199kts
23-Oct-20 20:26 44.297679 -122.770860 11 30073ft 200kts
23-Oct-20 20:27 44.349663 -122.740852 12 31142ft 204kts
23-Oct-20 20:28 44.402290 -122.710408 12 32140ft 207kts
23-Oct-20 20:29 44.455858 -122.679349 12 33011ft 211kts
23-Oct-20 20:30 44.511679 -122.647011 13 33026ft 233kts
23-Oct-20 20:31 44.577155 -122.608937 14 33023ft 275kts
23-Oct-20 20:32 44.651895 -122.565269 15 33021ft 307kts
23-Oct-20 20:33 44.733852 -122.517245 15 33016ft 330kts
23-Oct-20 20:34 44.820492 -122.466332 16 33006ft 346kts
23-Oct-20 20:35 44.910676 -122.413177 16 33001ft 357kts
23-Oct-20 20:36 44.996107 -122.336324 32 32993ft 376kts
23-Oct-20 20:37 45.077253 -122.242013 29 32986ft 379kts
23-Oct-20 20:38 45.161634 -122.143935 28 32994ft 383kts
23-Oct-20 20:39 45.248096 -122.043001 28 32993ft 385kts
23-Oct-20 20:40 45.333317 -121.943038 28 32993ft 387kts
23-Oct-20 20:41 45.417402 -121.843991 28 32972ft 388kts
23-Oct-20 20:42 45.500826 -121.745335 28 32938ft 389kts
23-Oct-20 20:43 45.584449 -121.646056 28 32911ft 389kts
23-Oct-20 20:44 45.667572 -121.546957 28 32911ft 389kts
23-Oct-20 20:45 45.750615 -121.447581 28 32911ft 389kts
23-Oct-20 20:46 45.833495 -121.347983 29 32910ft 389kts
23-Oct-20 20:47 45.916209 -121.248203 29 32900ft 388kts
23-Oct-20 20:48 45.998521 -121.148478 29 32900ft 387kts
23-Oct-20 20:49 46.080557 -121.048686 29 32900ft 387kts
23-Oct-20 20:50 46.163072 -120.947930 29 32916ft 388kts
23-Oct-20 20:51 46.245320 -120.847107 29 32923ft 389kts
23-Oct-20 20:52 46.328059 -120.745247 29 32790ft 393kts
23-Oct-20 20:53 46.415888 -120.636786 30 30805ft 423kts
23-Oct-20 20:54 46.508791 -120.521307 30 28793ft 424kts
23-Oct-20 20:55 46.593750 -120.403582 40 27080ft 425kts
23-Oct-20 20:56 46.669532 -120.272815 41 25861ft 418kts
23-Oct-20 20:57 46.743979 -120.143335 41 24800ft 413kts
23-Oct-20 20:58 46.817446 -120.014938 42 23734ft 407kts
23-Oct-20 20:59 46.889422 -119.888541 42 22649ft 402kts
23-Oct-20 21:00 46.961045 -119.762120 41 21561ft 401kts
23-Oct-20 21:01 47.031520 -119.637232 41 20455ft 398kts
23-Oct-20 21:02 47.102565 -119.510811 41 19357ft 394kts
23-Oct-20 21:03 47.175420 -119.380503 42 18245ft 387kts
23-Oct-20 21:04 47.229508 -119.232595 68 17065ft 397kts
23-Oct-20 21:05 47.264682 -119.069092 68 15882ft 390kts
23-Oct-20 21:06 47.298526 -118.911341 68 14724ft 377kts
23-Oct-20 21:07 47.330476 -118.759955 72 13580ft 365kts
23-Oct-20 21:08 47.360339 -118.611622 68 12442ft 354kts
23-Oct-20 21:09 47.390024 -118.473367 68 12042ft 325kts
23-Oct-20 21:10 47.417820 -118.344882 69 11998ft 322kts
23-Oct-20 21:11 47.429139 -118.219646 84 10379ft 283kts
23-Oct-20 21:12 47.430866 -118.103174 84 8561ft 240kts
23-Oct-20 21:13 47.430539 -118.008254 84 6748ft 205kts
23-Oct-20 21:14 47.431139 -117.924263 74 4983ft 188kts
23-Oct-20 21:15 47.440578 -117.851003 74 3981ft 162kts
23-Oct-20 21:16 47.455045 -117.781625 42 4128ft 170kts
23-Oct-20 21:17 47.490329 -117.729553 40 4619ft 154kts
23-Oct-20 21:18 47.516149 -117.691092 39 4749ft 123kts
23-Oct-20 21:19 47.540072 -117.655275 39 4328ft 114kts
23-Oct-20 21:20 47.563582 -117.620145 41 3725ft 113kts
23-Oct-20 21:21 47.586845 -117.585182 42 3087ft 113kts
23-Oct-20 21:22 47.608573 -117.552451 43 2499ft 117kts
23-Oct-20 21:23 47.635499 -117.510240 44 2905ft 222kts
23-Oct-20 21:24 47.675857 -117.444426 43 6312ft 181kts
23-Oct-20 21:33 47.620416 -117.528554 359 2387ft 0kts
23-Oct-20 21:34 47.620416 -117.528554 359 2387ft 0kts
23-Oct-20 21:35 47.620416 -117.528554 359 2387ft 0kts
23-Oct-20 21:36 47.620416 -117.528554 359 2387ft 0kts
23-Oct-20 21:37 47.620416 -117.528554 359 2387ft 0kts

Navigation Log

Ident Type
Flight plan parsing failed, navigation log unavailable